sensor_id;sensor_type;location;lat;lon;timestamp;temperature;humidity
1594;DHT22;790;47.000;16.084;2022-09-27T00:00:43;14.50;99.90
1594;DHT22;790;47.000;16.084;2022-09-27T00:03:11;14.60;99.90
1594;DHT22;790;47.000;16.084;2022-09-27T00:05:40;14.70;99.90
1594;DHT22;790;47.000;16.084;2022-09-27T00:08:07;14.70;99.90
1594;DHT22;790;47.000;16.084;2022-09-27T00:10:35;14.70;99.90
1594;DHT22;790;47.000;16.084;2022-09-27T00:13:03;14.70;99.90
1594;DHT22;790;47.000;16.084;2022-09-27T00:15:30;14.70;99.90
1594;DHT22;790;47.000;16.084;2022-09-27T00:17:58;14.70;99.90
1594;DHT22;790;47.000;16.084;2022-09-27T00:20:25;14.70;99.90
1594;DHT22;790;47.000;16.084;2022-09-27T00:22:52;14.60;99.90
1594;DHT22;790;47.000;16.084;2022-09-27T00:25:19;14.50;99.90
1594;DHT22;790;47.000;16.084;2022-09-27T00:27:47;14.40;99.90
1594;DHT22;790;47.000;16.084;2022-09-27T00:30:16;14.40;99.90
1594;DHT22;790;47.000;16.084;2022-09-27T00:32:44;14.40;99.90
1594;DHT22;790;47.000;16.084;2022-09-27T00:35:11;14.40;99.90
1594;DHT22;790;47.000;16.084;2022-09-27T00:37:38;14.40;99.90
1594;DHT22;790;47.000;16.084;2022-09-27T00:40:06;14.40;99.90
1594;DHT22;790;47.000;16.084;2022-09-27T00:42:34;14.40;99.90
1594;DHT22;790;47.000;16.084;2022-09-27T00:45:08;14.40;99.90
1594;DHT22;790;47.000;16.084;2022-09-27T00:47:46;14.40;99.90
1594;DHT22;790;47.000;16.084;2022-09-27T00:50:22;14.30;99.90
1594;DHT22;790;47.000;16.084;2022-09-27T00:52:57;14.30;99.90
1594;DHT22;790;47.000;16.084;2022-09-27T00:55:29;14.40;99.90
1594;DHT22;790;47.000;16.084;2022-09-27T00:57:58;14.50;99.90
1594;DHT22;790;47.000;16.084;2022-09-27T01:00:25;14.60;99.90
1594;DHT22;790;47.000;16.084;2022-09-27T01:02:55;14.60;99.90
1594;DHT22;790;47.000;16.084;2022-09-27T01:05:26;14.50;99.90
1594;DHT22;790;47.000;16.084;2022-09-27T01:07:54;14.60;99.90
1594;DHT22;790;47.000;16.084;2022-09-27T01:10:28;14.60;99.90
1594;DHT22;790;47.000;16.084;2022-09-27T01:13:06;14.70;99.90
1594;DHT22;790;47.000;16.084;2022-09-27T01:15:42;14.70;99.90
1594;DHT22;790;47.000;16.084;2022-09-27T01:18:25;14.80;99.90
1594;DHT22;790;47.000;16.084;2022-09-27T01:21:17;14.80;99.90
1594;DHT22;790;47.000;16.084;2022-09-27T01:26:54;14.70;99.90
1594;DHT22;790;47.000;16.084;2022-09-27T01:29:29;14.70;99.90
1594;DHT22;790;47.000;16.084;2022-09-27T01:32:04;14.70;99.90
1594;DHT22;790;47.000;16.084;2022-09-27T01:34:36;14.70;99.90
1594;DHT22;790;47.000;16.084;2022-09-27T01:37:09;14.70;99.90
1594;DHT22;790;47.000;16.084;2022-09-27T01:39:46;14.60;99.90
1594;DHT22;790;47.000;16.084;2022-09-27T01:42:20;14.60;99.90
1594;DHT22;790;47.000;16.084;2022-09-27T01:44:51;14.60;99.90
1594;DHT22;790;47.000;16.084;2022-09-27T01:47:25;14.60;99.90
1594;DHT22;790;47.000;16.084;2022-09-27T01:49:59;14.60;99.90
1594;DHT22;790;47.000;16.084;2022-09-27T01:52:32;14.60;99.90
1594;DHT22;790;47.000;16.084;2022-09-27T01:55:03;14.60;99.90
1594;DHT22;790;47.000;16.084;2022-09-27T01:57:36;14.50;99.90
1594;DHT22;790;47.000;16.084;2022-09-27T02:00:06;14.50;99.90
1594;DHT22;790;47.000;16.084;2022-09-27T02:02:38;14.50;99.90
1594;DHT22;790;47.000;16.084;2022-09-27T02:05:09;14.50;99.90
1594;DHT22;790;47.000;16.084;2022-09-27T02:07:43;14.60;99.90
1594;DHT22;790;47.000;16.084;2022-09-27T02:10:14;14.60;99.90
1594;DHT22;790;47.000;16.084;2022-09-27T02:12:48;14.50;99.90
1594;DHT22;790;47.000;16.084;2022-09-27T02:15:18;14.50;99.90
1594;DHT22;790;47.000;16.084;2022-09-27T02:17:54;14.50;99.90
1594;DHT22;790;47.000;16.084;2022-09-27T02:20:28;14.50;99.90
1594;DHT22;790;47.000;16.084;2022-09-27T02:23:00;14.50;99.90
1594;DHT22;790;47.000;16.084;2022-09-27T02:25:34;14.50;99.90
1594;DHT22;790;47.000;16.084;2022-09-27T02:28:07;14.50;99.90
1594;DHT22;790;47.000;16.084;2022-09-27T02:30:39;14.50;99.90
1594;DHT22;790;47.000;16.084;2022-09-27T02:33:08;14.60;99.90
1594;DHT22;790;47.000;16.084;2022-09-27T02:35:35;14.60;99.90
1594;DHT22;790;47.000;16.084;2022-09-27T02:38:04;14.60;99.90
1594;DHT22;790;47.000;16.084;2022-09-27T02:40:35;14.50;99.90
1594;DHT22;790;47.000;16.084;2022-09-27T02:43:04;14.50;99.90
1594;DHT22;790;47.000;16.084;2022-09-27T02:45:38;14.60;99.90
1594;DHT22;790;47.000;16.084;2022-09-27T02:48:15;14.60;99.90
1594;DHT22;790;47.000;16.084;2022-09-27T02:54:01;14.60;99.90
1594;DHT22;790;47.000;16.084;2022-09-27T02:56:35;14.60;99.90
1594;DHT22;790;47.000;16.084;2022-09-27T02:59:10;14.60;99.90
1594;DHT22;790;47.000;16.084;2022-09-27T03:01:47;14.60;99.90
1594;DHT22;790;47.000;16.084;2022-09-27T03:04:24;14.50;99.90
1594;DHT22;790;47.000;16.084;2022-09-27T03:06:54;14.50;99.90
1594;DHT22;790;47.000;16.084;2022-09-27T03:09:27;14.60;99.90
1594;DHT22;790;47.000;16.084;2022-09-27T03:11:55;14.60;99.90
1594;DHT22;790;47.000;16.084;2022-09-27T03:14:22;14.60;99.90
1594;DHT22;790;47.000;16.084;2022-09-27T03:16:49;14.60;99.90
1594;DHT22;790;47.000;16.084;2022-09-27T03:19:18;14.70;99.90
1594;DHT22;790;47.000;16.084;2022-09-27T03:21:45;14.70;99.90
1594;DHT22;790;47.000;16.084;2022-09-27T03:24:13;14.60;99.90
1594;DHT22;790;47.000;16.084;2022-09-27T03:26:41;14.60;99.90
1594;DHT22;790;47.000;16.084;2022-09-27T03:29:08;14.60;99.90
1594;DHT22;790;47.000;16.084;2022-09-27T03:31:36;14.60;99.90
1594;DHT22;790;47.000;16.084;2022-09-27T03:34:03;14.60;99.90
1594;DHT22;790;47.000;16.084;2022-09-27T03:36:32;14.70;99.90
1594;DHT22;790;47.000;16.084;2022-09-27T03:38:59;14.70;99.90
1594;DHT22;790;47.000;16.084;2022-09-27T03:41:26;14.70;99.90
1594;DHT22;790;47.000;16.084;2022-09-27T03:43:54;14.70;99.90
1594;DHT22;790;47.000;16.084;2022-09-27T03:46:22;14.70;99.90
1594;DHT22;790;47.000;16.084;2022-09-27T03:48:49;14.80;99.90
1594;DHT22;790;47.000;16.084;2022-09-27T03:51:17;14.80;99.90
1594;DHT22;790;47.000;16.084;2022-09-27T03:53:45;14.80;99.90
1594;DHT22;790;47.000;16.084;2022-09-27T03:56:12;14.70;99.90
1594;DHT22;790;47.000;16.084;2022-09-27T03:58:40;14.70;99.90
1594;DHT22;790;47.000;16.084;2022-09-27T04:01:07;14.70;99.90
1594;DHT22;790;47.000;16.084;2022-09-27T04:03:34;14.80;99.90
1594;DHT22;790;47.000;16.084;2022-09-27T04:06:02;14.80;99.90
1594;DHT22;790;47.000;16.084;2022-09-27T04:08:29;14.70;99.90
1594;DHT22;790;47.000;16.084;2022-09-27T04:10:58;14.80;99.90
1594;DHT22;790;47.000;16.084;2022-09-27T04:13:25;14.80;99.90
1594;DHT22;790;47.000;16.084;2022-09-27T04:15:53;14.80;99.90
1594;DHT22;790;47.000;16.084;2022-09-27T04:18:20;14.80;99.90
1594;DHT22;790;47.000;16.084;2022-09-27T04:20:47;14.80;99.90
1594;DHT22;790;47.000;16.084;2022-09-27T04:23:14;14.70;99.90
1594;DHT22;790;47.000;16.084;2022-09-27T04:25:42;14.70;99.90
1594;DHT22;790;47.000;16.084;2022-09-27T04:28:10;14.70;99.90
1594;DHT22;790;47.000;16.084;2022-09-27T04:30:38;14.70;99.90
1594;DHT22;790;47.000;16.084;2022-09-27T04:33:06;14.60;99.90
1594;DHT22;790;47.000;16.084;2022-09-27T04:35:33;14.70;99.90
1594;DHT22;790;47.000;16.084;2022-09-27T04:38:17;14.70;99.90
1594;DHT22;790;47.000;16.084;2022-09-27T04:40:47;14.70;99.90
1594;DHT22;790;47.000;16.084;2022-09-27T04:43:16;14.70;99.90
1594;DHT22;790;47.000;16.084;2022-09-27T04:45:44;14.80;99.90
1594;DHT22;790;47.000;16.084;2022-09-27T04:48:11;14.80;99.90
1594;DHT22;790;47.000;16.084;2022-09-27T04:50:38;14.80;99.90
1594;DHT22;790;47.000;16.084;2022-09-27T04:53:06;14.80;99.90
1594;DHT22;790;47.000;16.084;2022-09-27T04:55:33;14.70;99.90
1594;DHT22;790;47.000;16.084;2022-09-27T04:58:00;14.70;99.90
1594;DHT22;790;47.000;16.084;2022-09-27T05:00:29;14.70;99.90
1594;DHT22;790;47.000;16.084;2022-09-27T05:02:56;14.70;99.90
1594;DHT22;790;47.000;16.084;2022-09-27T05:05:23;14.70;99.90
1594;DHT22;790;47.000;16.084;2022-09-27T05:07:51;14.70;99.90
1594;DHT22;790;47.000;16.084;2022-09-27T05:10:18;14.70;99.90
1594;DHT22;790;47.000;16.084;2022-09-27T05:12:45;14.70;99.90
1594;DHT22;790;47.000;16.084;2022-09-27T05:15:12;14.80;99.90
1594;DHT22;790;47.000;16.084;2022-09-27T05:17:42;14.80;99.90
1594;DHT22;790;47.000;16.084;2022-09-27T05:20:09;14.80;99.90
1594;DHT22;790;47.000;16.084;2022-09-27T05:22:38;14.80;99.90
1594;DHT22;790;47.000;16.084;2022-09-27T05:25:06;14.80;99.90
1594;DHT22;790;47.000;16.084;2022-09-27T05:27:34;14.80;99.90
1594;DHT22;790;47.000;16.084;2022-09-27T05:30:01;14.90;99.90
1594;DHT22;790;47.000;16.084;2022-09-27T05:32:28;14.90;99.90
1594;DHT22;790;47.000;16.084;2022-09-27T05:34:57;14.90;99.90
1594;DHT22;790;47.000;16.084;2022-09-27T05:37:24;14.80;99.90
1594;DHT22;790;47.000;16.084;2022-09-27T05:39:51;14.80;99.90
1594;DHT22;790;47.000;16.084;2022-09-27T05:42:18;14.80;99.90
1594;DHT22;790;47.000;16.084;2022-09-27T05:44:46;14.80;99.90
1594;DHT22;790;47.000;16.084;2022-09-27T05:47:13;14.80;99.90
1594;DHT22;790;47.000;16.084;2022-09-27T05:49:40;14.80;99.90
1594;DHT22;790;47.000;16.084;2022-09-27T05:52:09;14.70;99.90
1594;DHT22;790;47.000;16.084;2022-09-27T05:54:36;14.70;99.90
1594;DHT22;790;47.000;16.084;2022-09-27T05:57:04;14.70;99.90
1594;DHT22;790;47.000;16.084;2022-09-27T05:59:32;14.70;99.90
1594;DHT22;790;47.000;16.084;2022-09-27T06:02:00;14.70;99.90
1594;DHT22;790;47.000;16.084;2022-09-27T06:04:27;14.70;99.90
1594;DHT22;790;47.000;16.084;2022-09-27T06:06:54;14.70;99.90
1594;DHT22;790;47.000;16.084;2022-09-27T06:09:25;14.70;99.90
1594;DHT22;790;47.000;16.084;2022-09-27T06:11:52;14.80;99.90
1594;DHT22;790;47.000;16.084;2022-09-27T06:14:20;14.90;99.90
1594;DHT22;790;47.000;16.084;2022-09-27T06:16:47;14.90;99.90
1594;DHT22;790;47.000;16.084;2022-09-27T06:19:14;14.90;99.90
1594;DHT22;790;47.000;16.084;2022-09-27T06:21:41;14.90;99.90
1594;DHT22;790;47.000;16.084;2022-09-27T06:24:08;15.00;99.90
1594;DHT22;790;47.000;16.084;2022-09-27T06:26:37;15.00;99.90
1594;DHT22;790;47.000;16.084;2022-09-27T06:29:04;15.00;99.90
1594;DHT22;790;47.000;16.084;2022-09-27T06:31:33;15.00;99.90
1594;DHT22;790;47.000;16.084;2022-09-27T06:34:00;15.10;99.90
1594;DHT22;790;47.000;16.084;2022-09-27T06:36:28;15.10;99.90
1594;DHT22;790;47.000;16.084;2022-09-27T06:38:56;15.10;99.90
1594;DHT22;790;47.000;16.084;2022-09-27T06:41:26;15.10;99.90
1594;DHT22;790;47.000;16.084;2022-09-27T06:43:54;15.10;99.90
1594;DHT22;790;47.000;16.084;2022-09-27T06:46:22;15.20;99.90
1594;DHT22;790;47.000;16.084;2022-09-27T06:48:49;15.10;99.90
1594;DHT22;790;47.000;16.084;2022-09-27T06:51:16;15.10;99.90
1594;DHT22;790;47.000;16.084;2022-09-27T06:53:43;15.20;99.90
1594;DHT22;790;47.000;16.084;2022-09-27T06:56:10;15.20;99.90
1594;DHT22;790;47.000;16.084;2022-09-27T06:58:37;15.20;99.90
1594;DHT22;790;47.000;16.084;2022-09-27T07:01:27;15.30;99.90
1594;DHT22;790;47.000;16.084;2022-09-27T07:03:55;15.20;99.90
1594;DHT22;790;47.000;16.084;2022-09-27T07:06:23;15.30;99.90
1594;DHT22;790;47.000;16.084;2022-09-27T07:08:50;15.30;99.90
1594;DHT22;790;47.000;16.084;2022-09-27T07:11:18;15.20;99.90
1594;DHT22;790;47.000;16.084;2022-09-27T07:13:47;15.20;99.90
1594;DHT22;790;47.000;16.084;2022-09-27T07:16:14;15.20;99.90
1594;DHT22;790;47.000;16.084;2022-09-27T07:18:43;15.20;99.90
1594;DHT22;790;47.000;16.084;2022-09-27T07:21:11;15.20;99.90
1594;DHT22;790;47.000;16.084;2022-09-27T07:23:40;15.20;99.90
1594;DHT22;790;47.000;16.084;2022-09-27T07:26:08;15.20;99.90
1594;DHT22;790;47.000;16.084;2022-09-27T07:28:36;15.20;99.90
1594;DHT22;790;47.000;16.084;2022-09-27T07:31:07;15.20;99.90
1594;DHT22;790;47.000;16.084;2022-09-27T07:33:34;15.20;99.90
1594;DHT22;790;47.000;16.084;2022-09-27T07:36:07;15.20;99.90
1594;DHT22;790;47.000;16.084;2022-09-27T07:38:35;15.20;99.90
1594;DHT22;790;47.000;16.084;2022-09-27T07:41:05;15.30;99.90
1594;DHT22;790;47.000;16.084;2022-09-27T07:43:34;15.30;99.90
1594;DHT22;790;47.000;16.084;2022-09-27T07:46:01;15.30;99.90
1594;DHT22;790;47.000;16.084;2022-09-27T07:48:28;15.30;99.90
1594;DHT22;790;47.000;16.084;2022-09-27T07:50:55;15.30;99.90
1594;DHT22;790;47.000;16.084;2022-09-27T07:53:24;15.30;99.90
1594;DHT22;790;47.000;16.084;2022-09-27T07:55:52;15.30;99.90
1594;DHT22;790;47.000;16.084;2022-09-27T07:58:19;15.30;99.90
1594;DHT22;790;47.000;16.084;2022-09-27T08:00:47;15.30;99.90
1594;DHT22;790;47.000;16.084;2022-09-27T08:03:15;15.40;99.90
1594;DHT22;790;47.000;16.084;2022-09-27T08:05:44;15.40;99.90
1594;DHT22;790;47.000;16.084;2022-09-27T08:08:12;15.40;99.90
1594;DHT22;790;47.000;16.084;2022-09-27T08:10:41;15.40;99.90
1594;DHT22;790;47.000;16.084;2022-09-27T08:13:12;15.50;99.90
1594;DHT22;790;47.000;16.084;2022-09-27T08:15:39;15.50;99.90
1594;DHT22;790;47.000;16.084;2022-09-27T08:18:07;15.40;99.90
1594;DHT22;790;47.000;16.084;2022-09-27T08:20:35;15.30;99.90
1594;DHT22;790;47.000;16.084;2022-09-27T08:23:02;15.30;99.90
1594;DHT22;790;47.000;16.084;2022-09-27T08:25:30;15.30;99.90
1594;DHT22;790;47.000;16.084;2022-09-27T08:28:00;15.30;99.90
1594;DHT22;790;47.000;16.084;2022-09-27T08:30:29;15.40;99.90
1594;DHT22;790;47.000;16.084;2022-09-27T08:32:58;15.40;99.90
1594;DHT22;790;47.000;16.084;2022-09-27T08:35:26;15.40;99.90
1594;DHT22;790;47.000;16.084;2022-09-27T08:37:55;15.40;99.90
1594;DHT22;790;47.000;16.084;2022-09-27T08:40:29;15.40;99.90
1594;DHT22;790;47.000;16.084;2022-09-27T08:43:04;15.50;99.90
1594;DHT22;790;47.000;16.084;2022-09-27T08:45:37;15.50;99.90
1594;DHT22;790;47.000;16.084;2022-09-27T08:48:07;15.60;99.90
1594;DHT22;790;47.000;16.084;2022-09-27T08:50:37;15.50;99.90
1594;DHT22;790;47.000;16.084;2022-09-27T08:53:17;15.50;99.90
1594;DHT22;790;47.000;16.084;2022-09-27T08:55:47;15.50;99.90
1594;DHT22;790;47.000;16.084;2022-09-27T08:58:22;15.50;99.90
1594;DHT22;790;47.000;16.084;2022-09-27T09:00:53;15.50;99.90
1594;DHT22;790;47.000;16.084;2022-09-27T09:03:24;15.50;99.90
1594;DHT22;790;47.000;16.084;2022-09-27T09:06:06;15.40;99.90
1594;DHT22;790;47.000;16.084;2022-09-27T09:08:44;15.40;99.90
1594;DHT22;790;47.000;16.084;2022-09-27T09:11:30;15.50;99.90
1594;DHT22;790;47.000;16.084;2022-09-27T09:17:34;15.50;99.90
1594;DHT22;790;47.000;16.084;2022-09-27T09:20:20;15.50;99.90
1594;DHT22;790;47.000;16.084;2022-09-27T09:23:08;15.60;99.90
1594;DHT22;790;47.000;16.084;2022-09-27T09:25:47;15.60;99.90
1594;DHT22;790;47.000;16.084;2022-09-27T09:28:25;15.60;99.90
1594;DHT22;790;47.000;16.084;2022-09-27T09:31:00;15.60;99.90
1594;DHT22;790;47.000;16.084;2022-09-27T09:33:33;15.60;99.90
1594;DHT22;790;47.000;16.084;2022-09-27T09:36:09;15.60;99.90
1594;DHT22;790;47.000;16.084;2022-09-27T09:38:43;15.70;99.90
1594;DHT22;790;47.000;16.084;2022-09-27T09:41:15;15.70;99.90
1594;DHT22;790;47.000;16.084;2022-09-27T09:43:47;15.70;99.90
1594;DHT22;790;47.000;16.084;2022-09-27T09:46:19;15.60;99.90
1594;DHT22;790;47.000;16.084;2022-09-27T09:48:52;15.50;99.90
1594;DHT22;790;47.000;16.084;2022-09-27T09:51:26;15.60;99.90
1594;DHT22;790;47.000;16.084;2022-09-27T09:53:57;15.60;99.90
1594;DHT22;790;47.000;16.084;2022-09-27T09:56:29;15.60;99.90
1594;DHT22;790;47.000;16.084;2022-09-27T09:58:59;15.60;99.90
1594;DHT22;790;47.000;16.084;2022-09-27T10:01:32;15.70;99.90
1594;DHT22;790;47.000;16.084;2022-09-27T10:04:02;15.70;99.90
1594;DHT22;790;47.000;16.084;2022-09-27T10:06:30;15.80;99.90
1594;DHT22;790;47.000;16.084;2022-09-27T10:08:58;15.80;99.90
1594;DHT22;790;47.000;16.084;2022-09-27T10:11:36;15.80;99.90
1594;DHT22;790;47.000;16.084;2022-09-27T10:14:08;15.80;99.90
1594;DHT22;790;47.000;16.084;2022-09-27T10:16:36;15.70;99.90
1594;DHT22;790;47.000;16.084;2022-09-27T10:19:08;15.70;99.90
1594;DHT22;790;47.000;16.084;2022-09-27T10:21:40;15.70;99.90
1594;DHT22;790;47.000;16.084;2022-09-27T10:24:12;15.70;99.90
1594;DHT22;790;47.000;16.084;2022-09-27T10:26:41;15.70;99.90
1594;DHT22;790;47.000;16.084;2022-09-27T10:29:19;15.70;99.90
1594;DHT22;790;47.000;16.084;2022-09-27T10:31:48;15.70;99.90
1594;DHT22;790;47.000;16.084;2022-09-27T10:34:30;15.70;99.90
1594;DHT22;790;47.000;16.084;2022-09-27T10:39:48;15.70;99.90
1594;DHT22;790;47.000;16.084;2022-09-27T10:42:31;15.70;99.90
1594;DHT22;790;47.000;16.084;2022-09-27T10:45:24;15.70;99.90
1594;DHT22;790;47.000;16.084;2022-09-27T10:47:53;15.80;99.90
1594;DHT22;790;47.000;16.084;2022-09-27T10:50:24;15.80;99.90
1594;DHT22;790;47.000;16.084;2022-09-27T10:53:04;15.70;99.90
1594;DHT22;790;47.000;16.084;2022-09-27T10:55:34;15.70;99.90
1594;DHT22;790;47.000;16.084;2022-09-27T10:58:03;15.70;99.90
1594;DHT22;790;47.000;16.084;2022-09-27T11:00:32;15.60;99.90
1594;DHT22;790;47.000;16.084;2022-09-27T11:03:02;15.60;99.90
1594;DHT22;790;47.000;16.084;2022-09-27T11:05:34;15.60;99.90
1594;DHT22;790;47.000;16.084;2022-09-27T11:08:20;15.70;99.90
1594;DHT22;790;47.000;16.084;2022-09-27T11:11:17;15.70;99.90
1594;DHT22;790;47.000;16.084;2022-09-27T11:13:57;15.60;99.90
1594;DHT22;790;47.000;16.084;2022-09-27T11:16:36;15.40;99.90
1594;DHT22;790;47.000;16.084;2022-09-27T11:19:17;15.20;99.90
1594;DHT22;790;47.000;16.084;2022-09-27T11:21:54;15.00;99.90
1594;DHT22;790;47.000;16.084;2022-09-27T11:24:38;14.90;99.90
1594;DHT22;790;47.000;16.084;2022-09-27T11:27:18;14.70;99.90
1594;DHT22;790;47.000;16.084;2022-09-27T11:30:01;14.30;99.90
1594;DHT22;790;47.000;16.084;2022-09-27T11:32:43;14.10;99.90
1594;DHT22;790;47.000;16.084;2022-09-27T11:35:29;13.90;99.90
1594;DHT22;790;47.000;16.084;2022-09-27T11:38:09;13.90;99.90
1594;DHT22;790;47.000;16.084;2022-09-27T11:43:58;14.00;99.90
1594;DHT22;790;47.000;16.084;2022-09-27T11:46:31;14.00;99.90
1594;DHT22;790;47.000;16.084;2022-09-27T11:49:21;14.10;99.90
1594;DHT22;790;47.000;16.084;2022-09-27T11:52:04;14.20;99.90
1594;DHT22;790;47.000;16.084;2022-09-27T11:55:08;14.30;99.90
1594;DHT22;790;47.000;16.084;2022-09-27T11:57:42;14.50;99.90
1594;DHT22;790;47.000;16.084;2022-09-27T12:00:17;14.70;99.90
1594;DHT22;790;47.000;16.084;2022-09-27T12:03:28;14.70;99.90
1594;DHT22;790;47.000;16.084;2022-09-27T12:06:05;14.90;99.90
1594;DHT22;790;47.000;16.084;2022-09-27T12:08:42;14.90;99.90
1594;DHT22;790;47.000;16.084;2022-09-27T12:11:18;14.90;99.90
1594;DHT22;790;47.000;16.084;2022-09-27T12:13:49;15.00;99.90
1594;DHT22;790;47.000;16.084;2022-09-27T12:16:18;15.00;99.90
1594;DHT22;790;47.000;16.084;2022-09-27T12:18:47;15.00;99.90
1594;DHT22;790;47.000;16.084;2022-09-27T12:21:16;15.10;99.90
1594;DHT22;790;47.000;16.084;2022-09-27T12:23:48;15.20;99.90
1594;DHT22;790;47.000;16.084;2022-09-27T12:26:24;15.30;99.90
1594;DHT22;790;47.000;16.084;2022-09-27T12:28:54;15.40;99.90
1594;DHT22;790;47.000;16.084;2022-09-27T12:31:26;15.50;99.90
1594;DHT22;790;47.000;16.084;2022-09-27T12:34:01;15.50;99.90
1594;DHT22;790;47.000;16.084;2022-09-27T12:36:32;15.50;99.90
1594;DHT22;790;47.000;16.084;2022-09-27T12:39:08;15.50;99.90
1594;DHT22;790;47.000;16.084;2022-09-27T12:41:44;15.50;99.90
1594;DHT22;790;47.000;16.084;2022-09-27T12:44:13;15.50;99.90
1594;DHT22;790;47.000;16.084;2022-09-27T12:46:49;15.50;99.90
1594;DHT22;790;47.000;16.084;2022-09-27T12:49:22;15.50;99.90
1594;DHT22;790;47.000;16.084;2022-09-27T12:51:55;15.50;99.90
1594;DHT22;790;47.000;16.084;2022-09-27T12:54:43;15.50;99.90
1594;DHT22;790;47.000;16.084;2022-09-27T12:57:23;15.60;99.90
1594;DHT22;790;47.000;16.084;2022-09-27T13:00:10;15.60;99.90
1594;DHT22;790;47.000;16.084;2022-09-27T13:08:47;15.20;99.90
1594;DHT22;790;47.000;16.084;2022-09-27T13:11:20;15.20;99.90
1594;DHT22;790;47.000;16.084;2022-09-27T13:13:53;15.10;99.90
1594;DHT22;790;47.000;16.084;2022-09-27T13:16:22;15.00;99.90
1594;DHT22;790;47.000;16.084;2022-09-27T13:18:53;14.90;99.90
1594;DHT22;790;47.000;16.084;2022-09-27T13:21:57;14.90;99.90
1594;DHT22;790;47.000;16.084;2022-09-27T13:24:46;14.80;99.90
1594;DHT22;790;47.000;16.084;2022-09-27T13:27:39;14.60;99.90
1594;DHT22;790;47.000;16.084;2022-09-27T13:33:39;14.70;99.90
1594;DHT22;790;47.000;16.084;2022-09-27T13:36:26;14.70;99.90
1594;DHT22;790;47.000;16.084;2022-09-27T13:39:12;14.70;99.90
1594;DHT22;790;47.000;16.084;2022-09-27T13:41:56;14.70;99.90
1594;DHT22;790;47.000;16.084;2022-09-27T13:44:38;14.90;99.90
1594;DHT22;790;47.000;16.084;2022-09-27T13:47:23;14.60;99.90
1594;DHT22;790;47.000;16.084;2022-09-27T13:49:57;14.40;99.90
1594;DHT22;790;47.000;16.084;2022-09-27T13:52:32;14.40;99.90
1594;DHT22;790;47.000;16.084;2022-09-27T13:55:01;14.40;99.90
1594;DHT22;790;47.000;16.084;2022-09-27T13:57:45;14.50;99.90
1594;DHT22;790;47.000;16.084;2022-09-27T14:00:16;14.50;99.90
1594;DHT22;790;47.000;16.084;2022-09-27T14:02:54;14.60;99.90
1594;DHT22;790;47.000;16.084;2022-09-27T14:05:27;14.60;99.90
1594;DHT22;790;47.000;16.084;2022-09-27T14:07:59;14.80;99.90
1594;DHT22;790;47.000;16.084;2022-09-27T14:10:28;14.80;99.90
1594;DHT22;790;47.000;16.084;2022-09-27T14:12:58;14.80;99.90
1594;DHT22;790;47.000;16.084;2022-09-27T14:15:27;14.80;99.90
1594;DHT22;790;47.000;16.084;2022-09-27T14:17:55;14.70;99.90
1594;DHT22;790;47.000;16.084;2022-09-27T14:20:34;14.70;99.90
1594;DHT22;790;47.000;16.084;2022-09-27T14:23:02;14.70;99.90
1594;DHT22;790;47.000;16.084;2022-09-27T14:25:30;14.70;99.90
1594;DHT22;790;47.000;16.084;2022-09-27T14:27:57;14.70;99.90
1594;DHT22;790;47.000;16.084;2022-09-27T14:30:27;14.60;99.90
1594;DHT22;790;47.000;16.084;2022-09-27T14:32:56;14.50;99.90
1594;DHT22;790;47.000;16.084;2022-09-27T14:35:28;14.50;99.90
1594;DHT22;790;47.000;16.084;2022-09-27T14:38:17;14.60;99.90
1594;DHT22;790;47.000;16.084;2022-09-27T14:40:57;14.70;99.90
1594;DHT22;790;47.000;16.084;2022-09-27T14:43:24;14.80;99.90
1594;DHT22;790;47.000;16.084;2022-09-27T14:45:56;14.90;99.90
1594;DHT22;790;47.000;16.084;2022-09-27T14:48:27;14.90;99.90
1594;DHT22;790;47.000;16.084;2022-09-27T14:50:57;14.90;99.90
1594;DHT22;790;47.000;16.084;2022-09-27T14:53:30;14.80;99.90
1594;DHT22;790;47.000;16.084;2022-09-27T14:55:58;14.80;99.90
1594;DHT22;790;47.000;16.084;2022-09-27T14:58:26;14.80;99.90
1594;DHT22;790;47.000;16.084;2022-09-27T15:00:55;14.80;99.90
1594;DHT22;790;47.000;16.084;2022-09-27T15:03:28;14.80;99.90
1594;DHT22;790;47.000;16.084;2022-09-27T15:05:56;14.80;99.90
1594;DHT22;790;47.000;16.084;2022-09-27T15:08:28;14.80;99.90
1594;DHT22;790;47.000;16.084;2022-09-27T15:10:59;14.90;99.90
1594;DHT22;790;47.000;16.084;2022-09-27T15:13:27;14.90;99.90
1594;DHT22;790;47.000;16.084;2022-09-27T15:15:55;14.90;99.90
1594;DHT22;790;47.000;16.084;2022-09-27T15:18:32;14.80;99.90
1594;DHT22;790;47.000;16.084;2022-09-27T15:21:00;14.70;99.90
1594;DHT22;790;47.000;16.084;2022-09-27T15:23:34;14.80;99.90
1594;DHT22;790;47.000;16.084;2022-09-27T15:26:06;14.80;99.90
1594;DHT22;790;47.000;16.084;2022-09-27T15:28:34;14.70;99.90
1594;DHT22;790;47.000;16.084;2022-09-27T15:31:04;14.70;99.90
1594;DHT22;790;47.000;16.084;2022-09-27T15:33:32;14.70;99.90
1594;DHT22;790;47.000;16.084;2022-09-27T15:36:03;14.60;99.90
1594;DHT22;790;47.000;16.084;2022-09-27T15:38:32;14.60;99.90
1594;DHT22;790;47.000;16.084;2022-09-27T15:41:06;14.60;99.90
1594;DHT22;790;47.000;16.084;2022-09-27T15:43:36;14.60;99.90
1594;DHT22;790;47.000;16.084;2022-09-27T15:46:28;14.60;99.90
1594;DHT22;790;47.000;16.084;2022-09-27T15:49:20;14.60;99.90
1594;DHT22;790;47.000;16.084;2022-09-27T15:51:49;14.60;99.90
1594;DHT22;790;47.000;16.084;2022-09-27T15:54:21;14.60;99.90
1594;DHT22;790;47.000;16.084;2022-09-27T15:56:50;14.60;99.90
1594;DHT22;790;47.000;16.084;2022-09-27T15:59:20;14.60;99.90
1594;DHT22;790;47.000;16.084;2022-09-27T16:01:48;14.60;99.90
1594;DHT22;790;47.000;16.084;2022-09-27T16:04:17;14.60;99.90
1594;DHT22;790;47.000;16.084;2022-09-27T16:06:45;14.60;99.90
1594;DHT22;790;47.000;16.084;2022-09-27T16:09:14;14.70;99.90
1594;DHT22;790;47.000;16.084;2022-09-27T16:11:54;14.70;99.90
1594;DHT22;790;47.000;16.084;2022-09-27T16:14:21;14.70;99.90
1594;DHT22;790;47.000;16.084;2022-09-27T16:16:50;14.70;99.90
1594;DHT22;790;47.000;16.084;2022-09-27T16:19:18;14.80;99.90
1594;DHT22;790;47.000;16.084;2022-09-27T16:21:45;14.80;99.90
1594;DHT22;790;47.000;16.084;2022-09-27T16:24:14;14.80;99.90
1594;DHT22;790;47.000;16.084;2022-09-27T16:26:42;14.80;99.90
1594;DHT22;790;47.000;16.084;2022-09-27T16:29:12;14.70;99.90
1594;DHT22;790;47.000;16.084;2022-09-27T16:31:40;14.70;99.90
1594;DHT22;790;47.000;16.084;2022-09-27T16:34:07;14.60;99.90
1594;DHT22;790;47.000;16.084;2022-09-27T16:36:35;14.60;99.90
1594;DHT22;790;47.000;16.084;2022-09-27T16:39:02;14.40;99.90
1594;DHT22;790;47.000;16.084;2022-09-27T16:41:30;14.30;99.90
1594;DHT22;790;47.000;16.084;2022-09-27T16:43:58;14.30;99.90
1594;DHT22;790;47.000;16.084;2022-09-27T16:46:26;14.30;99.90
1594;DHT22;790;47.000;16.084;2022-09-27T16:48:55;14.30;99.90
1594;DHT22;790;47.000;16.084;2022-09-27T16:51:22;14.40;99.90
1594;DHT22;790;47.000;16.084;2022-09-27T16:54:07;14.30;99.90
1594;DHT22;790;47.000;16.084;2022-09-27T16:56:34;14.30;99.90